KGPI

Glacier Park International Airport

Kalispell, Montana, USA
METAR KGPI 162155Z 00000KT 10SM OVC075 03/M05 A2998 RMK AO2 SLP180 T00281050
Observed Flight Rules
Dec-16 @ 21:55 UTC (9 minutes ago) Visual Flight Rules
Visibility Clouds
10 miles
  • Overcast at 7,500' AGL
Temperatures Readings
Current 3°C / 37°F
Dewpoint -5°C / 23°F
Humidity 56%
Altimeter 29.98" Hg
Pressure 1018 hPa
Elevation 908
METAR KGPI 162155Z 00000KT 10SM OVC075 03/M05 A2998 RMK AO2 SLP180 T00281050
Observed Flight Rules
Dec-16 @ 21:55 UTC
(9 minutes ago)
VFR
Clouds
  • Overcast at 7,500' AGL
Temperature Dewpoint
3°C / 37°F -5°C / 23°F
Humidity Altimeter Pressure
56% 29.98" Hg 1018 hPa